Sign in to follow this  
Guest GrahamB

FS Meteo week-old WX

Recommended Posts

Is FS Meteo no longer being supported by its author? I

Share this post


Link to post
Share on other sites
Help AVSIM continue to serve you!
Please donate today!

Hi, GrahamTo be sure that you don't feel alone, I experienced exactly the same situation : I tried to download several times the WX files since last sunday, and it seems that the server stopped collecting data on May 24th, 1600Z. I sent a mail to Marc as well, but up to now, I got no answer from him. Let's hope he will soon re-boot the machine...Cheers Alain

Share this post


Link to post
Share on other sites

Graham,Not sure what technical issues may be hampering your connections to the FS Meteo server, but I have been successfully using FS Meteo with no problems at all.Here is the Metar I just downloaded from FS Meteo:KATL 311353Z 23015G21KT 10SM SCT065 24/17 A2972 RMK AO2 SLP055 T02390172Here is the Metar I just accessed through the internet:KATL 311353Z 23015G21KT 10SM SCT065 24/17 A2972 RMK AO2 SLP055 T02390172As you can see, they are exactly the same.I realize this doesn't solve your problem, but it does indicate that Marc's server is functioning just fine.Hope this helps you refocus your attention as you strive for a resolution.Doug3.06Ghz P4 533FSB512 MB RAMBUS RAMSony CPD-G410R 19" CRTRadeon 9700 Pro (Not O/C)SB Audigy 2120 GB ATA Ultra DriveMS Sidewinder Force FB ProWinXP Pro SP1DX 9.0a

Share this post


Link to post
Share on other sites

OK I just got a message from Marc Philibert, and he rebooted the server.So I'm happy that FSMETEO is working fine again !Alain

Share this post


Link to post
Share on other sites

Create an account or sign in to comment

You need to be a member in order to leave a comment

Create an account

Sign up for a new account in our community. It's easy!

Register a new account

Sign in

Already have an account? Sign in here.

Sign In Now
Sign in to follow this